Terminal Aerodrome Forecast
Issued by NWS

Home | Current Version | Previous Version | Text Only | Print | Product List | Glossary On
Versions: 1 2 3 4 5 6 7 8 9 10 11 12 13 14 15
000
FTUS43 KGRR 272341
TAFAZO
TAF
KAZO 272341Z 2800/2824 04007KT P6SM VCSH BKN040
     FM280100 00000KT P6SM SCT040 BKN100
     FM281600 04005KT P6SM VCTS BKN040CB=

USA.gov is the U.S. government's official web portal to all federal, state and local government web resources and services.